createdAt,value
2019-04-01T00:03:25.902Z,11.00
2019-04-01T00:05:54.702Z,11.00
2019-04-01T00:08:42.494Z,10.90
2019-04-01T00:11:30.265Z,10.80
2019-04-01T00:17:13.015Z,10.90
2019-04-01T00:20:00.851Z,10.80
2019-04-01T00:22:48.999Z,10.80
2019-04-01T00:25:36.922Z,10.80
2019-04-01T00:28:44.046Z,10.60
2019-04-01T00:31:32.063Z,10.50
2019-04-01T00:34:19.922Z,10.50
2019-04-01T00:37:07.691Z,10.60
2019-04-01T00:39:55.486Z,10.60
2019-04-01T00:48:50.518Z,10.40
2019-04-01T00:51:38.306Z,10.50
2019-04-01T00:54:26.109Z,10.60
2019-04-01T00:57:13.933Z,10.30
2019-04-01T01:00:01.716Z,10.30
2019-04-01T01:02:42.065Z,10.30
2019-04-01T01:05:22.614Z,10.30
2019-04-01T01:08:03.157Z,10.30
2019-04-01T01:10:43.495Z,10.40
2019-04-01T01:13:24.074Z,10.40
2019-04-01T01:16:04.758Z,10.30
2019-04-01T01:18:45.228Z,10.10
2019-04-01T01:21:26.060Z,10.10
2019-04-01T01:24:06.496Z,10.30
2019-04-01T01:26:47.495Z,10.20
2019-04-01T01:29:27.861Z,10.10
2019-04-01T01:31:56.559Z,10.10
2019-04-01T01:34:44.319Z,10.20
2019-04-01T01:37:32.103Z,10.20
2019-04-01T01:40:00.806Z,10.10
2019-04-01T01:42:48.919Z,10.00
2019-04-01T01:45:36.706Z,10.10
2019-04-01T01:48:17.762Z,10.00
2019-04-01T01:50:58.305Z,9.80
2019-04-01T01:53:41.531Z,9.80
2019-04-01T01:56:21.582Z,9.90
2019-04-01T01:59:02.020Z,9.90
2019-04-01T02:01:42.774Z,9.90
2019-04-01T02:04:23.403Z,9.90
2019-04-01T02:07:03.770Z,9.90
2019-04-01T02:09:44.565Z,9.90
2019-04-01T02:12:25.279Z,9.70
2019-04-01T02:15:05.474Z,9.70
2019-04-01T02:17:33.922Z,9.60
2019-04-01T02:20:21.706Z,9.60
2019-04-01T02:23:09.493Z,9.60
2019-04-01T02:25:57.301Z,9.50
2019-04-01T02:28:45.350Z,9.50
2019-04-01T02:31:33.394Z,9.60
2019-04-01T02:34:21.534Z,9.60
2019-04-01T02:37:09.322Z,9.50
2019-04-01T02:39:57.090Z,9.50
2019-04-01T02:42:44.911Z,9.50
2019-04-01T02:45:32.701Z,9.70
2019-04-01T02:48:13.704Z,9.60
2019-04-01T02:50:54.613Z,9.60
2019-04-01T02:53:35.555Z,9.70
2019-04-01T02:56:04.382Z,9.60
2019-04-01T02:58:52.425Z,9.50
2019-04-01T03:01:20.923Z,9.60
2019-04-01T03:04:08.699Z,9.70
2019-04-01T03:06:56.495Z,9.60
2019-04-01T03:09:24.916Z,9.50
2019-04-01T03:12:12.995Z,9.50
2019-04-01T03:15:00.746Z,9.50
2019-04-01T03:17:48.860Z,9.60
2019-04-01T03:20:36.641Z,9.60
2019-04-01T03:23:24.429Z,9.50
2019-04-01T03:26:19.520Z,9.50
2019-04-01T03:29:07.314Z,9.50
2019-04-01T03:31:55.358Z,9.50
2019-04-01T03:34:43.451Z,9.50
2019-04-01T03:37:31.234Z,9.40
2019-04-01T03:40:19.014Z,9.40
2019-04-01T03:43:07.061Z,9.40
2019-04-01T03:45:54.849Z,9.40
2019-04-01T03:48:35.867Z,9.30
2019-04-01T03:51:16.966Z,9.40
2019-04-01T03:53:57.324Z,9.30
2019-04-01T03:56:25.760Z,9.20
2019-04-01T03:59:13.788Z,9.10
2019-04-01T04:02:01.588Z,9.00
2019-04-01T04:04:49.423Z,9.10
2019-04-01T04:07:37.187Z,9.10
2019-04-01T04:10:24.972Z,9.10
2019-04-01T04:13:12.728Z,9.10
2019-04-01T04:16:00.510Z,9.10
2019-04-01T04:18:48.266Z,9.00
2019-04-01T04:21:36.324Z,8.90
2019-04-01T04:24:24.103Z,9.10
2019-04-01T04:27:12.133Z,9.10
2019-04-01T04:29:59.970Z,9.00
2019-04-01T04:32:48.055Z,9.10
2019-04-01T04:35:36.105Z,9.10
2019-04-01T04:38:23.870Z,9.00
2019-04-01T04:40:52.314Z,9.10
2019-04-01T04:43:40.102Z,9.10
2019-04-01T04:46:28.182Z,9.00
2019-04-01T04:49:15.961Z,9.10
2019-04-01T04:52:04.736Z,9.20
2019-04-01T04:54:33.930Z,9.20
2019-04-01T04:57:21.761Z,9.10
2019-04-01T05:00:09.846Z,9.10
2019-04-01T05:02:57.885Z,9.00
2019-04-01T05:05:45.652Z,9.00
2019-04-01T05:08:26.874Z,9.10
2019-04-01T05:11:07.463Z,9.10
2019-04-01T05:13:48.261Z,9.10
2019-04-01T05:16:29.158Z,9.00
2019-04-01T05:19:09.849Z,9.00
2019-04-01T05:21:50.954Z,9.00
2019-04-01T05:24:31.856Z,9.00
2019-04-01T05:27:12.562Z,9.00
2019-04-01T05:29:53.078Z,9.10
2019-04-01T05:32:33.967Z,8.90
2019-04-01T05:35:14.510Z,9.00
2019-04-01T05:37:55.061Z,9.10
2019-04-01T05:40:35.731Z,9.00
2019-04-01T05:46:31.827Z,9.30
2019-04-01T05:49:19.917Z,9.50
2019-04-01T05:52:08.073Z,9.40
2019-04-01T05:54:55.845Z,9.40
2019-04-01T05:57:43.630Z,9.40
2019-04-01T06:03:06.769Z,9.20
2019-04-01T06:05:54.530Z,9.40
2019-04-01T06:08:42.316Z,9.40
2019-04-01T06:11:30.102Z,9.50
2019-04-01T06:14:17.865Z,9.50
2019-04-01T06:16:58.618Z,9.50
2019-04-01T06:19:39.382Z,9.60
2019-04-01T06:22:20.529Z,9.70
2019-04-01T06:25:01.085Z,9.60
2019-04-01T06:27:42.026Z,9.60
2019-04-01T06:30:22.650Z,9.70
2019-04-01T06:33:03.373Z,9.80
2019-04-01T06:35:44.662Z,9.90
2019-04-01T06:38:13.093Z,9.80
2019-04-01T06:41:00.878Z,9.90
2019-04-01T06:43:48.643Z,9.90
2019-04-01T06:46:36.426Z,9.80
2019-04-01T06:49:24.190Z,9.90
2019-04-01T06:52:11.981Z,10.20
2019-04-01T06:54:59.741Z,10.40
2019-04-01T06:57:47.548Z,10.40
2019-04-01T07:03:43.986Z,10.50
2019-04-01T07:06:31.764Z,10.90
2019-04-01T07:09:19.542Z,11.10
2019-04-01T07:11:59.981Z,10.90
2019-04-01T07:14:28.501Z,10.50
2019-04-01T07:17:16.293Z,10.60
2019-04-01T07:20:08.542Z,10.70
2019-04-01T07:22:54.977Z,10.70
2019-04-01T07:25:42.826Z,10.50
2019-04-01T07:28:30.953Z,10.70
2019-04-01T07:31:18.802Z,12.20
2019-04-01T07:34:06.585Z,12.00
2019-04-01T07:36:54.356Z,13.10
2019-04-01T07:39:42.144Z,12.10
2019-04-01T07:42:30.230Z,11.70
2019-04-01T07:45:18.374Z,13.10
2019-04-01T07:48:06.416Z,14.50
2019-04-01T07:50:47.530Z,12.90
2019-04-01T07:53:28.334Z,12.90
2019-04-01T07:56:08.913Z,12.90
2019-04-01T07:58:49.802Z,12.50
2019-04-01T08:01:30.430Z,11.80
2019-04-01T08:04:11.309Z,12.80
2019-04-01T08:06:52.379Z,12.60
2019-04-01T08:09:33.378Z,14.30
2019-04-01T08:12:14.002Z,13.00
2019-04-01T08:14:55.322Z,13.40
2019-04-01T08:17:36.542Z,14.90
2019-04-01T08:20:17.310Z,13.80
2019-04-01T08:22:58.203Z,12.70
2019-04-01T08:25:38.829Z,12.30
2019-04-01T08:28:23.401Z,13.00
2019-04-01T08:31:02.745Z,12.90
2019-04-01T08:33:43.604Z,14.00
2019-04-01T08:36:24.363Z,13.60
2019-04-01T08:39:04.908Z,13.40
2019-04-01T08:41:45.410Z,13.20
2019-04-01T08:44:25.976Z,13.00
2019-04-01T08:47:06.839Z,13.20
2019-04-01T08:49:47.271Z,13.10
2019-04-01T08:52:28.218Z,13.30
2019-04-01T08:55:09.237Z,15.30
2019-04-01T08:57:49.919Z,15.40
2019-04-01T09:00:30.371Z,16.10
2019-04-01T09:03:11.169Z,16.00
2019-04-01T09:05:52.158Z,16.00
2019-04-01T09:08:33.378Z,15.30
2019-04-01T09:11:14.420Z,15.30
2019-04-01T09:13:55.132Z,15.00
2019-04-01T09:16:36.129Z,15.60
2019-04-01T09:19:16.705Z,16.00
2019-04-01T09:21:57.651Z,16.30
2019-04-01T09:24:38.934Z,16.00
2019-04-01T09:27:19.918Z,15.50
2019-04-01T09:30:00.882Z,15.60
2019-04-01T09:32:42.114Z,16.10
2019-04-01T09:35:22.792Z,16.00
2019-04-01T09:38:03.488Z,16.40
2019-04-01T09:40:43.750Z,16.50
2019-04-01T09:43:24.758Z,16.50
2019-04-01T09:46:05.350Z,16.10
2019-04-01T09:48:33.793Z,16.60
2019-04-01T09:51:21.637Z,16.80
2019-04-01T09:54:09.424Z,16.80
2019-04-01T09:56:57.210Z,16.50
2019-04-01T09:59:44.973Z,16.80
2019-04-01T10:02:33.042Z,16.30
2019-04-01T10:05:21.046Z,16.00
2019-04-01T10:08:08.871Z,16.60
2019-04-01T10:10:56.657Z,15.80
2019-04-01T10:13:44.706Z,15.60
2019-04-01T10:16:32.485Z,16.00
2019-04-01T10:19:00.915Z,16.40
2019-04-01T10:21:48.703Z,16.10
2019-04-01T10:24:17.140Z,15.80
2019-04-01T10:27:04.921Z,14.80
2019-04-01T10:29:33.361Z,13.70
2019-04-01T10:32:13.576Z,14.30
2019-04-01T10:34:54.354Z,15.90
2019-04-01T10:37:35.829Z,16.60
2019-04-01T10:40:16.521Z,15.80
2019-04-01T10:42:57.034Z,16.00
2019-04-01T10:45:38.057Z,16.00
2019-04-01T10:48:18.813Z,16.40
2019-04-01T10:50:59.874Z,16.60
2019-04-01T10:53:40.525Z,15.60
2019-04-01T10:56:21.644Z,14.60
2019-04-01T10:59:02.831Z,14.90
2019-04-01T11:01:43.479Z,15.50
2019-04-01T11:04:11.975Z,14.90
2019-04-01T11:06:59.982Z,15.20
2019-04-01T11:09:49.602Z,15.80
2019-04-01T11:12:37.475Z,14.90
2019-04-01T11:15:46.038Z,14.80
2019-04-01T11:18:34.089Z,14.60
2019-04-01T11:21:21.882Z,14.60
2019-04-01T11:24:09.674Z,15.50
2019-04-01T11:26:57.449Z,14.80
2019-04-01T11:29:45.537Z,14.60
2019-04-01T11:32:33.333Z,14.60
2019-04-01T11:37:51.345Z,15.70
2019-04-01T11:40:32.344Z,15.80
2019-04-01T11:43:12.994Z,15.40
2019-04-01T11:45:54.205Z,16.20
2019-04-01T11:48:34.735Z,15.60
2019-04-01T11:51:15.403Z,16.10
2019-04-01T11:53:55.870Z,16.40
2019-04-01T11:56:36.715Z,16.20
2019-04-01T11:59:18.117Z,16.80
2019-04-01T12:01:58.903Z,16.80
2019-04-01T12:04:39.591Z,16.90
2019-04-01T12:07:20.100Z,16.80
2019-04-01T12:10:01.305Z,16.80
2019-04-01T12:12:42.006Z,16.50
2019-04-01T12:15:23.210Z,15.90
2019-04-01T12:18:04.221Z,15.90
2019-04-01T12:20:45.386Z,15.90
2019-04-01T12:23:14.475Z,16.40
2019-04-01T12:26:14.298Z,16.80
2019-04-01T12:28:36.478Z,16.30
2019-04-01T12:31:03.969Z,15.70
2019-04-01T12:33:51.749Z,15.50
2019-04-01T12:36:20.174Z,16.20
2019-04-01T12:39:08.034Z,15.80
2019-04-01T12:41:56.056Z,16.00
2019-04-01T12:44:43.841Z,15.80
2019-04-01T12:47:31.670Z,15.70
2019-04-01T12:50:19.541Z,16.20
2019-04-01T12:53:07.378Z,16.30
2019-04-01T12:55:55.215Z,16.60
2019-04-01T12:58:43.011Z,16.10
2019-04-01T13:01:30.804Z,16.40
2019-04-01T13:04:22.704Z,16.30
2019-04-01T13:07:10.705Z,16.70
2019-04-01T13:09:51.920Z,16.50
2019-04-01T13:12:32.206Z,16.00
2019-04-01T13:15:00.748Z,16.30
2019-04-01T13:17:29.181Z,16.50
2019-04-01T13:20:16.989Z,16.40
2019-04-01T13:23:04.761Z,16.40
2019-04-01T13:25:52.562Z,16.60
2019-04-01T13:28:42.379Z,16.50
2019-04-01T13:31:30.114Z,16.60
2019-04-01T13:34:20.144Z,16.90
2019-04-01T13:37:07.468Z,17.10
2019-04-01T13:39:55.234Z,16.80
2019-04-01T13:42:43.467Z,16.50
2019-04-01T13:48:20.237Z,16.70
2019-04-01T13:51:08.025Z,16.60
2019-04-01T13:53:48.966Z,16.30
2019-04-01T13:56:29.653Z,16.20
2019-04-01T13:58:58.099Z,16.30
2019-04-01T14:01:45.908Z,16.30
2019-04-01T14:04:33.718Z,16.50
2019-04-01T14:07:26.957Z,16.60
2019-04-01T14:10:07.551Z,16.40
2019-04-01T14:12:48.387Z,16.50
2019-04-01T14:15:29.272Z,16.60
2019-04-01T14:18:10.271Z,16.80
2019-04-01T14:20:51.035Z,16.70
2019-04-01T14:23:31.641Z,16.60
2019-04-01T14:26:12.646Z,16.80
2019-04-01T14:28:53.417Z,16.90
2019-04-01T14:31:34.649Z,16.70
2019-04-01T14:34:06.324Z,16.70
2019-04-01T14:36:34.164Z,16.80
2019-04-01T14:39:22.010Z,17.00
2019-04-01T14:42:10.071Z,16.80
2019-04-01T14:44:58.551Z,17.20
2019-04-01T14:47:57.053Z,17.00
2019-04-01T14:50:35.963Z,16.70
2019-04-01T14:53:17.019Z,16.60
2019-04-01T14:55:45.458Z,16.50
2019-04-01T14:58:54.058Z,16.40
2019-04-01T15:01:41.881Z,16.50
2019-04-01T15:04:10.370Z,16.80
2019-04-01T15:06:58.143Z,16.90
2019-04-01T15:09:46.785Z,17.10
2019-04-01T15:12:35.510Z,16.80
2019-04-01T15:18:34.313Z,16.90
2019-04-01T15:21:21.924Z,16.80
2019-04-01T15:24:10.791Z,16.70
2019-04-01T15:27:00.947Z,17.00
2019-04-01T15:29:29.522Z,17.10
2019-04-01T15:32:17.651Z,17.00
2019-04-01T15:35:26.230Z,17.10
2019-04-01T15:38:14.023Z,16.80
2019-04-01T15:41:01.793Z,16.90
2019-04-01T15:43:49.596Z,16.90
2019-04-01T15:46:37.433Z,16.70
2019-04-01T15:49:25.294Z,16.70
2019-04-01T15:52:06.000Z,16.90
2019-04-01T15:54:46.348Z,16.90
2019-04-01T15:57:29.137Z,16.50
2019-04-01T16:00:09.359Z,17.10
2019-04-01T16:02:50.496Z,17.10
2019-04-01T16:05:31.235Z,17.00
2019-04-01T16:08:12.145Z,16.70
2019-04-01T16:10:52.822Z,16.50
2019-04-01T16:13:33.741Z,16.60
2019-04-01T16:16:14.681Z,16.80
2019-04-01T16:18:43.362Z,17.10
2019-04-01T16:21:31.561Z,16.70
2019-04-01T16:24:01.342Z,16.70
2019-04-01T16:26:49.427Z,16.40
2019-04-01T16:29:37.257Z,16.30
2019-04-01T16:32:25.088Z,16.30
2019-04-01T16:35:13.361Z,16.50
2019-04-01T16:38:01.149Z,16.60
2019-04-01T16:40:52.304Z,16.90
2019-04-01T16:43:38.860Z,16.90
2019-04-01T16:46:26.685Z,16.70
2019-04-01T16:49:14.791Z,16.30
2019-04-01T16:52:02.626Z,16.90
2019-04-01T16:55:11.431Z,16.70
2019-04-01T16:57:59.221Z,16.80
2019-04-01T17:00:47.255Z,16.60
2019-04-01T17:03:35.037Z,16.80
2019-04-01T17:06:03.497Z,16.90
2019-04-01T17:08:51.265Z,16.10
2019-04-01T17:11:31.803Z,16.50
2019-04-01T17:14:12.742Z,16.50
2019-04-01T17:16:53.434Z,16.60
2019-04-01T17:19:34.020Z,16.60
2019-04-01T17:22:14.998Z,16.70
2019-04-01T17:24:45.936Z,16.30
2019-04-01T17:27:32.925Z,16.20
2019-04-01T17:30:01.354Z,16.00
2019-04-01T17:32:49.149Z,16.20
2019-04-01T17:35:36.913Z,16.20
2019-04-01T17:38:24.694Z,16.40
2019-04-01T17:41:12.495Z,16.00
2019-04-01T17:44:00.637Z,16.10
2019-04-01T17:46:48.442Z,15.80
2019-04-01T17:49:36.206Z,15.60
2019-04-01T17:52:25.173Z,15.90
2019-04-01T17:55:13.562Z,16.20
2019-04-01T17:58:01.384Z,15.80
2019-04-01T18:03:44.222Z,15.90
2019-04-01T18:09:40.914Z,15.80
2019-04-01T18:12:28.694Z,15.70
2019-04-01T18:15:16.595Z,15.60
2019-04-01T18:18:04.425Z,15.10
2019-04-01T18:20:52.497Z,15.50
2019-04-01T18:23:33.141Z,15.10
2019-04-01T18:26:13.938Z,15.50
2019-04-01T18:28:42.718Z,15.70
2019-04-01T18:31:30.497Z,15.40
2019-04-01T18:34:20.912Z,15.30
2019-04-01T18:37:08.715Z,15.60
2019-04-01T18:39:57.197Z,15.30
2019-04-01T18:42:46.011Z,15.30
2019-04-01T18:45:33.782Z,14.90
2019-04-01T18:48:21.637Z,14.90
2019-04-01T18:51:09.454Z,14.90
2019-04-01T18:53:57.238Z,15.20
2019-04-01T18:59:38.582Z,15.20
2019-04-01T19:02:07.421Z,15.40
2019-04-01T19:04:55.208Z,14.90
2019-04-01T19:07:43.009Z,15.00
2019-04-01T19:10:30.774Z,14.60
2019-04-01T19:13:18.577Z,14.80
2019-04-01T19:16:07.392Z,14.60
2019-04-01T19:18:55.843Z,14.50
2019-04-01T19:21:43.647Z,14.30
2019-04-01T19:24:12.171Z,14.50
2019-04-01T19:26:53.101Z,14.90
2019-04-01T19:29:21.580Z,14.70
2019-04-01T19:32:09.789Z,14.70
2019-04-01T19:34:57.633Z,15.00
2019-04-01T19:37:27.219Z,14.70
2019-04-01T19:39:56.482Z,14.40
2019-04-01T19:42:44.283Z,14.70
2019-04-01T19:45:32.070Z,14.50
2019-04-01T19:48:19.861Z,14.30
2019-04-01T19:51:07.625Z,14.20
2019-04-01T19:53:55.433Z,13.90
2019-04-01T19:56:43.201Z,14.10
2019-04-01T19:59:31.233Z,14.00
2019-04-01T20:02:39.763Z,14.00
2019-04-01T20:05:27.551Z,14.10
2019-04-01T20:08:16.314Z,14.10
2019-04-01T20:11:05.001Z,13.90
2019-04-01T20:13:54.969Z,13.70
2019-04-01T20:16:23.206Z,13.70
2019-04-01T20:19:11.001Z,13.70
2019-04-01T20:21:58.791Z,13.60
2019-04-01T20:27:35.779Z,13.60
2019-04-01T20:30:23.661Z,13.50
2019-04-01T20:33:17.616Z,13.50
2019-04-01T20:36:00.952Z,13.40
2019-04-01T20:38:48.990Z,13.30
2019-04-01T20:41:36.790Z,13.20
2019-04-01T20:44:24.565Z,13.20
2019-04-01T20:47:12.358Z,13.20
2019-04-01T20:50:00.146Z,13.20
2019-04-01T20:52:47.934Z,13.20
2019-04-01T20:55:47.717Z,13.20
2019-04-01T20:58:25.306Z,13.10
2019-04-01T21:01:13.147Z,13.20
2019-04-01T21:04:01.190Z,13.10
2019-04-01T21:06:50.139Z,13.00
2019-04-01T21:09:38.808Z,13.10
2019-04-01T21:12:20.056Z,13.40
2019-04-01T21:15:01.455Z,13.20
2019-04-01T21:17:42.994Z,13.90
2019-04-01T21:20:23.670Z,14.20
2019-04-01T21:23:04.648Z,13.70
2019-04-01T21:25:33.221Z,13.50
2019-04-01T21:28:22.927Z,14.30
2019-04-01T21:31:10.521Z,14.50
2019-04-01T21:33:58.378Z,13.80
2019-04-01T21:37:06.271Z,14.40
2019-04-01T21:39:54.411Z,14.10
2019-04-01T21:42:43.263Z,13.90
2019-04-01T21:45:31.698Z,13.80
2019-04-01T21:48:19.951Z,14.90
2019-04-01T21:51:08.190Z,14.60
2019-04-01T21:53:55.955Z,14.30
2019-04-01T21:56:36.774Z,14.30
2019-04-01T21:59:19.805Z,13.90
2019-04-01T22:02:00.874Z,13.80
2019-04-01T22:04:41.978Z,13.80
2019-04-01T22:07:10.662Z,13.80
2019-04-01T22:09:58.498Z,13.90
2019-04-01T22:12:46.293Z,14.00
2019-04-01T22:15:34.070Z,14.00
2019-04-01T22:18:21.845Z,13.80
2019-04-01T22:21:30.362Z,14.10
2019-04-01T22:30:18.981Z,13.90
2019-04-01T22:33:07.057Z,13.90
2019-04-01T22:35:54.858Z,13.30
2019-04-01T22:38:42.629Z,13.20
2019-04-01T22:41:51.152Z,13.40
2019-04-01T22:44:38.984Z,13.30
2019-04-01T22:47:26.798Z,13.80
2019-04-01T22:50:14.553Z,14.00
2019-04-01T22:53:04.262Z,13.50
2019-04-01T22:55:51.831Z,13.80
2019-04-01T22:58:32.610Z,13.90
2019-04-01T23:01:13.590Z,14.10
2019-04-01T23:03:54.466Z,13.70
2019-04-01T23:06:23.153Z,13.60
2019-04-01T23:09:11.297Z,13.60
2019-04-01T23:11:59.063Z,13.50
2019-04-01T23:14:40.392Z,12.90
2019-04-01T23:17:21.247Z,12.90
2019-04-01T23:20:03.475Z,13.00
2019-04-01T23:22:44.458Z,13.00
2019-04-01T23:28:26.741Z,13.70
2019-04-01T23:31:14.515Z,13.50
2019-04-01T23:34:02.314Z,13.10
2019-04-01T23:36:50.103Z,13.40
2019-04-01T23:39:37.862Z,13.40
2019-04-01T23:42:25.653Z,13.10
2019-04-01T23:45:13.590Z,13.00
2019-04-01T23:48:01.381Z,12.90
2019-04-01T23:50:49.153Z,12.90
2019-04-01T23:53:37.218Z,12.50
2019-04-01T23:56:17.634Z,12.20
2019-04-01T23:58:58.096Z,12.60
